sensor_id;sensor_type;location;lat;lon;timestamp;P1;durP1;ratioP1;P2;durP2;ratioP2
39294;SDS011;52361;52.100;5.248;2022-08-24T07:00:04;21.6;;;10.7;;
39294;SDS011;52361;52.100;5.248;2022-08-24T07:01:41;16.5;;;9.4;;
39294;SDS011;52361;52.100;5.248;2022-08-24T07:04:53;16.8;;;9.9;;
39294;SDS011;52361;52.100;5.248;2022-08-24T07:06:29;14.6;;;9.6;;
39294;SDS011;52361;52.100;5.248;2022-08-24T07:08:07;16.7;;;10.7;;
39294;SDS011;52361;52.100;5.248;2022-08-24T07:11:20;22.7;;;11.5;;
39294;SDS011;52361;52.100;5.248;2022-08-24T07:12:57;17.8;;;10.4;;
39294;SDS011;52361;52.100;5.248;2022-08-24T07:14:34;20.2;;;10.8;;
39294;SDS011;52361;52.100;5.248;2022-08-24T07:17:46;18.0;;;10.4;;
39294;SDS011;52361;52.100;5.248;2022-08-24T07:19:22;13.5;;;9.81;;
39294;SDS011;52361;52.100;5.248;2022-08-24T07:21:00;15.2;;;10.3;;
39294;SDS011;52361;52.100;5.248;2022-08-24T07:22:37;12.0;;;9.6;;
39294;SDS011;52361;52.100;5.248;2022-08-24T07:25:50;16.2;;;10.7;;
39294;SDS011;52361;52.100;5.248;2022-08-24T07:27:26;15.3;;;10.4;;
39294;SDS011;52361;52.100;5.248;2022-08-24T07:29:05;13.7;;;9.71;;
39294;SDS011;52361;52.100;5.248;2022-08-24T07:32:22;13.1;;;9.21;;
39294;SDS011;52361;52.100;5.248;2022-08-24T07:33:58;13.6;;;10.0;;
39294;SDS011;52361;52.100;5.248;2022-08-24T07:35:34;14.3;;;9.6;;
39294;SDS011;52361;52.100;5.248;2022-08-24T07:37:13;13.6;;;9.6;;
39294;SDS011;52361;52.100;5.248;2022-08-24T07:40:29;13.8;;;9.9;;
39294;SDS011;52361;52.100;5.248;2022-08-24T07:42:05;13.4;;;8.9;;
39294;SDS011;52361;52.100;5.248;2022-08-24T07:43:42;14.2;;;8.9;;
39294;SDS011;52361;52.100;5.248;2022-08-24T07:46:59;11.5;;;8.71;;
39294;SDS011;52361;52.100;5.248;2022-08-24T07:48:35;14.1;;;9.6;;
39294;SDS011;52361;52.100;5.248;2022-08-24T07:50:11;13.1;;;9.1;;
39294;SDS011;52361;52.100;5.248;2022-08-24T07:53:24;13.2;;;8.5;;
39294;SDS011;52361;52.100;5.248;2022-08-24T07:55:00;10.3;;;8.1;;
39294;SDS011;52361;52.100;5.248;2022-08-24T07:56:38;9.6;;;7.8;;
39294;SDS011;52361;52.100;5.248;2022-08-24T07:58:15;10.7;;;7.8;;
39294;SDS011;52361;52.100;5.248;2022-08-24T08:01:27;9.1;;;7.0;;
39294;SDS011;52361;52.100;5.248;2022-08-24T08:03:03;10.5;;;6.6;;
39294;SDS011;52361;52.100;5.248;2022-08-24T08:04:41;10.7;;;7.1;;
39294;SDS011;52361;52.100;5.248;2022-08-24T08:07:55;10.4;;;7.0;;
39294;SDS011;52361;52.100;5.248;2022-08-24T08:09:31;8.4;;;6.7;;
39294;SDS011;52361;52.100;5.248;2022-08-24T08:11:07;8.6;;;6.6;;
39294;SDS011;52361;52.100;5.248;2022-08-24T08:12:45;8.9;;;6.0;;
39294;SDS011;52361;52.100;5.248;2022-08-24T08:15:58;13.2;;;8.0;;
39294;SDS011;52361;52.100;5.248;2022-08-24T08:17:35;8.5;;;6.1;;
39294;SDS011;52361;52.100;5.248;2022-08-24T08:19:13;8.1;;;5.11;;
39294;SDS011;52361;52.100;5.248;2022-08-24T08:25:19;8.2;;;4.91;;
39294;SDS011;52361;52.100;5.248;2022-08-24T08:28:33;5.4;;;4.3;;
39294;SDS011;52361;52.100;5.248;2022-08-24T08:30:09;5.5;;;4.2;;
39294;SDS011;52361;52.100;5.248;2022-08-24T08:31:46;7.3;;;5.11;;
39294;SDS011;52361;52.100;5.248;2022-08-24T08:34:58;9.21;;;5.11;;
39294;SDS011;52361;52.100;5.248;2022-08-24T08:36:34;6.7;;;4.8;;
39294;SDS011;52361;52.100;5.248;2022-08-24T08:38:12;7.7;;;5.3;;
39294;SDS011;52361;52.100;5.248;2022-08-24T08:41:35;12.9;;;7.3;;
39294;SDS011;52361;52.100;5.248;2022-08-24T08:45:20;9.1;;;6.3;;
39294;SDS011;52361;52.100;5.248;2022-08-24T08:47:06;13.2;;;6.5;;
39294;SDS011;52361;52.100;5.248;2022-08-24T08:49:02;7.0;;;5.11;;
39294;SDS011;52361;52.100;5.248;2022-08-24T08:51:07;8.0;;;5.8;;
39294;SDS011;52361;52.100;5.248;2022-08-24T08:54:39;10.8;;;6.6;;
39294;SDS011;52361;52.100;5.248;2022-08-24T08:56:24;11.8;;;8.0;;
39294;SDS011;52361;52.100;5.248;2022-08-24T08:58:14;9.1;;;6.5;;
39294;SDS011;52361;52.100;5.248;2022-08-24T09:00:09;8.0;;;4.41;;
39294;SDS011;52361;52.100;5.248;2022-08-24T09:01:51;10.3;;;6.9;;
39294;SDS011;52361;52.100;5.248;2022-08-24T09:03:52;7.5;;;6.1;;
39294;SDS011;52361;52.100;5.248;2022-08-24T09:07:17;12.6;;;7.2;;
39294;SDS011;52361;52.100;5.248;2022-08-24T09:11:15;9.5;;;6.6;;
39294;SDS011;52361;52.100;5.248;2022-08-24T09:13:06;12.8;;;5.7;;
39294;SDS011;52361;52.100;5.248;2022-08-24T09:14:58;6.7;;;4.3;;
39294;SDS011;52361;52.100;5.248;2022-08-24T09:16:59;6.0;;;4.3;;
39294;SDS011;52361;52.100;5.248;2022-08-24T09:18:52;4.7;;;3.6;;
39294;SDS011;52361;52.100;5.248;2022-08-24T09:20:47;6.2;;;4.61;;
39294;SDS011;52361;52.100;5.248;2022-08-24T09:22:46;6.6;;;4.61;;
39294;SDS011;52361;52.100;5.248;2022-08-24T09:24:42;6.2;;;3.7;;
39294;SDS011;52361;52.100;5.248;2022-08-24T09:26:58;6.2;;;3.5;;
39294;SDS011;52361;52.100;5.248;2022-08-24T09:28:49;5.6;;;4.0;;
39294;SDS011;52361;52.100;5.248;2022-08-24T09:30:39;6.5;;;5.3;;
39294;SDS011;52361;52.100;5.248;2022-08-24T09:32:41;7.0;;;3.0;;
39294;SDS011;52361;52.100;5.248;2022-08-24T09:34:44;2.8;;;2.6;;
39294;SDS011;52361;52.100;5.248;2022-08-24T09:36:31;6.3;;;4.0;;
39294;SDS011;52361;52.100;5.248;2022-08-24T09:40:34;4.2;;;3.0;;
39294;SDS011;52361;52.100;5.248;2022-08-24T09:42:56;5.4;;;3.5;;
39294;SDS011;52361;52.100;5.248;2022-08-24T09:45:59;5.0;;;2.5;;
39294;SDS011;52361;52.100;5.248;2022-08-24T09:49:38;4.41;;;2.6;;
39294;SDS011;52361;52.100;5.248;2022-08-24T09:53:18;4.41;;;3.3;;
39294;SDS011;52361;52.100;5.248;2022-08-24T09:57:42;3.0;;;2.4;;
39294;SDS011;52361;52.100;5.248;2022-08-24T09:59:40;3.5;;;2.4;;
39294;SDS011;52361;52.100;5.248;2022-08-24T10:01:38;4.41;;;2.7;;
39294;SDS011;52361;52.100;5.248;2022-08-24T10:05:33;3.8;;;2.6;;
39294;SDS011;52361;52.100;5.248;2022-08-24T10:07:35;2.9;;;2.1;;
39294;SDS011;52361;52.100;5.248;2022-08-24T10:09:33;2.6;;;2.0;;
39294;SDS011;52361;52.100;5.248;2022-08-24T10:11:29;2.6;;;2.4;;
39294;SDS011;52361;52.100;5.248;2022-08-24T10:13:15;3.2;;;2.6;;
39294;SDS011;52361;52.100;5.248;2022-08-24T10:15:05;4.7;;;2.9;;
39294;SDS011;52361;52.100;5.248;2022-08-24T10:16:48;4.0;;;2.7;;
39294;SDS011;52361;52.100;5.248;2022-08-24T10:18:42;3.2;;;2.5;;
39294;SDS011;52361;52.100;5.248;2022-08-24T10:20:41;5.11;;;2.9;;
39294;SDS011;52361;52.100;5.248;2022-08-24T10:22:33;2.6;;;2.4;;
39294;SDS011;52361;52.100;5.248;2022-08-24T10:24:39;1.9;;;1.7;;
39294;SDS011;52361;52.100;5.248;2022-08-24T10:30:46;8.81;;;2.31;;
39294;SDS011;52361;52.100;5.248;2022-08-24T10:32:43;1.8;;;1.7;;
39294;SDS011;52361;52.100;5.248;2022-08-24T10:34:33;2.1;;;1.7;;
39294;SDS011;52361;52.100;5.248;2022-08-24T10:36:29;3.3;;;2.5;;
39294;SDS011;52361;52.100;5.248;2022-08-24T13:00:56;1.0;;;1.0;;
39294;SDS011;52361;52.100;5.248;2022-08-24T13:02:38;1.5;;;1.2;;
39294;SDS011;52361;52.100;5.248;2022-08-24T13:06:09;4.91;;;1.7;;
39294;SDS011;52361;52.100;5.248;2022-08-24T13:07:55;1.9;;;0.9;;
39294;SDS011;52361;52.100;5.248;2022-08-24T13:09:47;1.2;;;1.11;;
39294;SDS011;52361;52.100;5.248;2022-08-24T13:11:40;1.2;;;1.11;;
39294;SDS011;52361;52.100;5.248;2022-08-24T13:13:20;1.0;;;1.0;;
39294;SDS011;52361;52.100;5.248;2022-08-24T13:15:50;1.3;;;1.2;;
39294;SDS011;52361;52.100;5.248;2022-08-24T13:17:38;1.2;;;1.11;;
39294;SDS011;52361;52.100;5.248;2022-08-24T13:19:30;1.5;;;1.11;;
39294;SDS011;52361;52.100;5.248;2022-08-24T13:23:13;1.3;;;1.2;;
39294;SDS011;52361;52.100;5.248;2022-08-24T13:24:54;2.4;;;1.11;;
39294;SDS011;52361;52.100;5.248;2022-08-24T13:26:36;2.31;;;1.0;;
39294;SDS011;52361;52.100;5.248;2022-08-24T13:28:30;1.2;;;1.0;;
39294;SDS011;52361;52.100;5.248;2022-08-24T13:30:26;1.6;;;1.2;;
39294;SDS011;52361;52.100;5.248;2022-08-24T13:45:13;1.2;;;1.11;;
39294;SDS011;52361;52.100;5.248;2022-08-24T13:47:00;1.4;;;1.3;;
39294;SDS011;52361;52.100;5.248;2022-08-24T13:48:51;1.6;;;1.4;;
39294;SDS011;52361;52.100;5.248;2022-08-24T13:50:42;1.3;;;1.2;;
39294;SDS011;52361;52.100;5.248;2022-08-24T13:54:52;3.5;;;1.11;;
39294;SDS011;52361;52.100;5.248;2022-08-24T13:57:05;2.4;;;1.2;;
39294;SDS011;52361;52.100;5.248;2022-08-24T13:59:03;23.9;;;3.9;;
39294;SDS011;52361;52.100;5.248;2022-08-24T14:02:34;1.6;;;1.5;;
39294;SDS011;52361;52.100;5.248;2022-08-24T14:04:56;6.4;;;2.31;;
39294;SDS011;52361;52.100;5.248;2022-08-24T14:06:38;2.4;;;1.6;;
39294;SDS011;52361;52.100;5.248;2022-08-24T14:08:32;2.4;;;1.2;;
39294;SDS011;52361;52.100;5.248;2022-08-24T14:10:25;1.5;;;1.0;;
39294;SDS011;52361;52.100;5.248;2022-08-24T14:12:16;1.6;;;1.11;;
39294;SDS011;52361;52.100;5.248;2022-08-24T14:14:14;1.2;;;1.11;;
39294;SDS011;52361;52.100;5.248;2022-08-24T14:19:38;6.9;;;1.7;;
39294;SDS011;52361;52.100;5.248;2022-08-24T14:21:32;3.1;;;1.4;;
39294;SDS011;52361;52.100;5.248;2022-08-24T14:23:20;1.5;;;1.4;;
39294;SDS011;52361;52.100;5.248;2022-08-24T14:25:15;1.5;;;1.4;;
39294;SDS011;52361;52.100;5.248;2022-08-24T14:26:59;1.3;;;1.2;;
39294;SDS011;52361;52.100;5.248;2022-08-24T14:28:44;2.31;;;1.2;;
39294;SDS011;52361;52.100;5.248;2022-08-24T14:32:25;1.4;;;1.3;;
39294;SDS011;52361;52.100;5.248;2022-08-24T14:34:09;1.6;;;1.5;;
39294;SDS011;52361;52.100;5.248;2022-08-24T14:36:06;2.31;;;1.5;;
39294;SDS011;52361;52.100;5.248;2022-08-24T14:38:00;1.5;;;1.4;;
39294;SDS011;52361;52.100;5.248;2022-08-24T14:39:52;2.1;;;1.6;;
39294;SDS011;52361;52.100;5.248;2022-08-24T14:41:40;1.5;;;1.4;;
39294;SDS011;52361;52.100;5.248;2022-08-24T14:43:44;2.7;;;1.5;;
39294;SDS011;52361;52.100;5.248;2022-08-24T14:46:04;1.7;;;1.6;;
39294;SDS011;52361;52.100;5.248;2022-08-24T14:49:51;1.8;;;1.5;;
39294;SDS011;52361;52.100;5.248;2022-08-24T14:51:46;1.5;;;1.4;;
39294;SDS011;52361;52.100;5.248;2022-08-24T14:53:40;4.0;;;1.7;;
39294;SDS011;52361;52.100;5.248;2022-08-24T14:55:33;1.4;;;1.2;;
39294;SDS011;52361;52.100;5.248;2022-08-24T14:59:41;1.9;;;1.7;;
39294;SDS011;52361;52.100;5.248;2022-08-24T15:01:35;2.7;;;1.3;;
39294;SDS011;52361;52.100;5.248;2022-08-24T15:03:24;2.5;;;1.6;;
39294;SDS011;52361;52.100;5.248;2022-08-24T15:05:48;2.31;;;1.2;;
39294;SDS011;52361;52.100;5.248;2022-08-24T15:07:39;1.3;;;1.2;;
39294;SDS011;52361;52.100;5.248;2022-08-24T15:09:26;1.8;;;1.3;;
39294;SDS011;52361;52.100;5.248;2022-08-24T15:11:08;1.7;;;1.5;;
39294;SDS011;52361;52.100;5.248;2022-08-24T15:12:48;1.8;;;1.4;;
39294;SDS011;52361;52.100;5.248;2022-08-24T15:14:32;1.5;;;1.4;;
39294;SDS011;52361;52.100;5.248;2022-08-24T15:18:11;1.6;;;1.5;;
39294;SDS011;52361;52.100;5.248;2022-08-24T15:20:06;1.3;;;1.2;;
39294;SDS011;52361;52.100;5.248;2022-08-24T15:23:39;3.1;;;1.4;;
39294;SDS011;52361;52.100;5.248;2022-08-24T15:25:32;1.9;;;1.2;;
39294;SDS011;52361;52.100;5.248;2022-08-24T15:27:17;1.2;;;1.11;;
39294;SDS011;52361;52.100;5.248;2022-08-24T15:29:07;1.6;;;1.3;;
39294;SDS011;52361;52.100;5.248;2022-08-24T15:32:39;2.1;;;1.3;;
39294;SDS011;52361;52.100;5.248;2022-08-24T15:34:18;1.8;;;1.5;;
39294;SDS011;52361;52.100;5.248;2022-08-24T15:36:08;1.8;;;1.6;;
39294;SDS011;52361;52.100;5.248;2022-08-24T15:37:47;5.8;;;1.8;;
39294;SDS011;52361;52.100;5.248;2022-08-24T15:41:03;1.4;;;1.3;;
39294;SDS011;52361;52.100;5.248;2022-08-24T15:42:50;2.6;;;1.5;;
39294;SDS011;52361;52.100;5.248;2022-08-24T15:44:26;3.5;;;1.4;;
39294;SDS011;52361;52.100;5.248;2022-08-24T15:46:06;2.5;;;1.5;;
39294;SDS011;52361;52.100;5.248;2022-08-24T15:49:23;2.0;;;1.3;;
39294;SDS011;52361;52.100;5.248;2022-08-24T15:51:03;3.2;;;1.6;;
39294;SDS011;52361;52.100;5.248;2022-08-24T15:52:42;1.4;;;1.3;;
39294;SDS011;52361;52.100;5.248;2022-08-24T15:54:26;1.8;;;1.6;;
39294;SDS011;52361;52.100;5.248;2022-08-24T15:56:28;1.4;;;1.3;;
39294;SDS011;52361;52.100;5.248;2022-08-24T16:00:15;1.5;;;1.4;;
39294;SDS011;52361;52.100;5.248;2022-08-24T16:02:29;2.7;;;1.9;;
39294;SDS011;52361;52.100;5.248;2022-08-24T16:04:08;1.6;;;1.5;;
39294;SDS011;52361;52.100;5.248;2022-08-24T16:05:46;1.0;;;0.9;;
39294;SDS011;52361;52.100;5.248;2022-08-24T16:07:25;1.2;;;1.11;;
39294;SDS011;52361;52.100;5.248;2022-08-24T16:09:09;4.2;;;2.0;;
39294;SDS011;52361;52.100;5.248;2022-08-24T16:13:04;2.21;;;1.7;;
39294;SDS011;52361;52.100;5.248;2022-08-24T16:16:29;1.7;;;1.6;;
39294;SDS011;52361;52.100;5.248;2022-08-24T16:18:10;1.7;;;1.6;;
39294;SDS011;52361;52.100;5.248;2022-08-24T16:19:48;1.6;;;1.5;;
39294;SDS011;52361;52.100;5.248;2022-08-24T16:21:28;1.5;;;1.4;;
39294;SDS011;52361;52.100;5.248;2022-08-24T16:25:17;6.3;;;3.0;;
39294;SDS011;52361;52.100;5.248;2022-08-24T16:27:06;1.5;;;1.3;;
39294;SDS011;52361;52.100;5.248;2022-08-24T16:28:47;4.7;;;1.9;;
39294;SDS011;52361;52.100;5.248;2022-08-24T16:30:26;2.8;;;1.5;;
39294;SDS011;52361;52.100;5.248;2022-08-24T16:32:15;2.4;;;1.3;;
39294;SDS011;52361;52.100;5.248;2022-08-24T16:33:53;1.8;;;1.7;;
39294;SDS011;52361;52.100;5.248;2022-08-24T16:37:24;1.8;;;1.7;;
39294;SDS011;52361;52.100;5.248;2022-08-24T16:39:01;1.4;;;1.3;;
39294;SDS011;52361;52.100;5.248;2022-08-24T16:40:39;2.7;;;1.4;;
39294;SDS011;52361;52.100;5.248;2022-08-24T16:42:18;3.1;;;1.6;;
39294;SDS011;52361;52.100;5.248;2022-08-24T16:45:36;1.8;;;1.7;;
39294;SDS011;52361;52.100;5.248;2022-08-24T16:47:13;1.7;;;1.4;;
39294;SDS011;52361;52.100;5.248;2022-08-24T16:48:49;2.0;;;1.6;;
39294;SDS011;52361;52.100;5.248;2022-08-24T16:52:06;1.8;;;1.5;;
39294;SDS011;52361;52.100;5.248;2022-08-24T16:53:43;6.6;;;3.3;;
39294;SDS011;52361;52.100;5.248;2022-08-24T16:55:19;8.9;;;2.0;;
39294;SDS011;52361;52.100;5.248;2022-08-24T16:56:56;2.4;;;1.7;;
39294;SDS011;52361;52.100;5.248;2022-08-24T17:00:15;1.3;;;1.2;;
39294;SDS011;52361;52.100;5.248;2022-08-24T17:01:53;1.8;;;1.6;;
39294;SDS011;52361;52.100;5.248;2022-08-24T17:03:29;1.7;;;1.4;;
39294;SDS011;52361;52.100;5.248;2022-08-24T17:06:44;1.6;;;1.5;;
39294;SDS011;52361;52.100;5.248;2022-08-24T17:08:21;2.4;;;1.6;;
39294;SDS011;52361;52.100;5.248;2022-08-24T17:09:59;1.7;;;1.6;;
39294;SDS011;52361;52.100;5.248;2022-08-24T17:11:39;2.0;;;1.7;;
39294;SDS011;52361;52.100;5.248;2022-08-24T17:14:52;1.4;;;1.3;;
39294;SDS011;52361;52.100;5.248;2022-08-24T17:21:22;1.7;;;1.6;;
39294;SDS011;52361;52.100;5.248;2022-08-24T17:22:58;1.6;;;1.5;;
39294;SDS011;52361;52.100;5.248;2022-08-24T17:24:34;1.6;;;1.5;;
39294;SDS011;52361;52.100;5.248;2022-08-24T17:26:11;2.1;;;1.6;;
39294;SDS011;52361;52.100;5.248;2022-08-24T17:29:27;1.5;;;1.2;;
39294;SDS011;52361;52.100;5.248;2022-08-24T17:31:05;2.4;;;1.5;;
39294;SDS011;52361;52.100;5.248;2022-08-24T17:32:41;1.3;;;1.2;;
39294;SDS011;52361;52.100;5.248;2022-08-24T17:35:58;2.31;;;1.4;;
39294;SDS011;52361;52.100;5.248;2022-08-24T17:37:35;1.7;;;1.6;;
39294;SDS011;52361;52.100;5.248;2022-08-24T17:39:12;3.2;;;1.5;;
39294;SDS011;52361;52.100;5.248;2022-08-24T17:40:49;1.6;;;1.5;;
39294;SDS011;52361;52.100;5.248;2022-08-24T17:44:02;1.6;;;1.5;;
39294;SDS011;52361;52.100;5.248;2022-08-24T17:45:39;1.7;;;1.4;;
39294;SDS011;52361;52.100;5.248;2022-08-24T17:47:16;1.8;;;1.7;;
39294;SDS011;52361;52.100;5.248;2022-08-24T17:52:10;1.7;;;1.6;;
39294;SDS011;52361;52.100;5.248;2022-08-24T17:53:48;2.0;;;1.8;;
39294;SDS011;52361;52.100;5.248;2022-08-24T17:55:25;2.6;;;1.7;;
39294;SDS011;52361;52.100;5.248;2022-08-24T17:59:21;1.8;;;1.6;;
39294;SDS011;52361;52.100;5.248;2022-08-24T18:01:03;1.5;;;1.4;;
39294;SDS011;52361;52.100;5.248;2022-08-24T18:02:40;2.4;;;1.8;;
39294;SDS011;52361;52.100;5.248;2022-08-24T18:04:17;4.2;;;2.1;;
39294;SDS011;52361;52.100;5.248;2022-08-24T18:05:54;1.5;;;1.4;;
39294;SDS011;52361;52.100;5.248;2022-08-24T18:09:10;1.8;;;1.7;;
39294;SDS011;52361;52.100;5.248;2022-08-24T18:11:01;1.9;;;1.7;;
39294;SDS011;52361;52.100;5.248;2022-08-24T18:12:37;2.21;;;2.0;;
39294;SDS011;52361;52.100;5.248;2022-08-24T18:14:13;1.4;;;1.3;;
39294;SDS011;52361;52.100;5.248;2022-08-24T18:17:29;1.9;;;1.7;;
39294;SDS011;52361;52.100;5.248;2022-08-24T18:19:10;1.6;;;1.5;;
39294;SDS011;52361;52.100;5.248;2022-08-24T18:20:49;1.7;;;1.6;;
39294;SDS011;52361;52.100;5.248;2022-08-24T18:24:02;2.6;;;1.6;;
39294;SDS011;52361;52.100;5.248;2022-08-24T18:25:41;1.4;;;1.3;;
39294;SDS011;52361;52.100;5.248;2022-08-24T18:27:23;3.5;;;1.7;;
39294;SDS011;52361;52.100;5.248;2022-08-24T18:29:06;2.0;;;1.8;;
39294;SDS011;52361;52.100;5.248;2022-08-24T18:32:23;1.6;;;1.5;;
39294;SDS011;52361;52.100;5.248;2022-08-24T18:33:59;1.8;;;1.7;;
39294;SDS011;52361;52.100;5.248;2022-08-24T18:35:35;2.1;;;1.6;;
39294;SDS011;52361;52.100;5.248;2022-08-24T18:38:48;1.7;;;1.6;;
39294;SDS011;52361;52.100;5.248;2022-08-24T18:40:26;2.5;;;1.5;;
39294;SDS011;52361;52.100;5.248;2022-08-24T18:42:03;4.91;;;1.7;;
39294;SDS011;52361;52.100;5.248;2022-08-24T18:43:42;1.9;;;1.5;;
39294;SDS011;52361;52.100;5.248;2022-08-24T18:46:55;1.7;;;1.6;;
39294;SDS011;52361;52.100;5.248;2022-08-24T18:48:33;2.1;;;1.8;;
39294;SDS011;52361;52.100;5.248;2022-08-24T18:50:09;1.7;;;1.6;;
39294;SDS011;52361;52.100;5.248;2022-08-24T18:53:24;1.6;;;1.5;;
39294;SDS011;52361;52.100;5.248;2022-08-24T18:55:02;1.5;;;1.4;;
39294;SDS011;52361;52.100;5.248;2022-08-24T18:56:41;1.9;;;1.3;;
39294;SDS011;52361;52.100;5.248;2022-08-24T18:58:18;5.11;;;2.1;;
39294;SDS011;52361;52.100;5.248;2022-08-24T19:01:30;4.2;;;1.7;;
39294;SDS011;52361;52.100;5.248;2022-08-24T19:03:09;1.9;;;1.7;;
39294;SDS011;52361;52.100;5.248;2022-08-24T19:04:50;1.9;;;1.7;;
39294;SDS011;52361;52.100;5.248;2022-08-24T19:08:03;2.7;;;1.9;;
39294;SDS011;52361;52.100;5.248;2022-08-24T19:11:19;2.4;;;2.21;;
39294;SDS011;52361;52.100;5.248;2022-08-24T19:12:59;2.1;;;1.9;;
39294;SDS011;52361;52.100;5.248;2022-08-24T19:16:15;2.8;;;1.9;;
39294;SDS011;52361;52.100;5.248;2022-08-24T19:17:51;3.1;;;2.4;;
39294;SDS011;52361;52.100;5.248;2022-08-24T19:19:27;2.4;;;2.21;;
39294;SDS011;52361;52.100;5.248;2022-08-24T19:22:39;3.2;;;2.21;;
39294;SDS011;52361;52.100;5.248;2022-08-24T19:24:18;2.6;;;2.4;;
39294;SDS011;52361;52.100;5.248;2022-08-24T19:26:00;2.4;;;2.21;;
39294;SDS011;52361;52.100;5.248;2022-08-24T19:27:38;2.8;;;2.31;;
39294;SDS011;52361;52.100;5.248;2022-08-24T19:30:52;2.8;;;2.5;;
39294;SDS011;52361;52.100;5.248;2022-08-24T19:32:37;4.1;;;2.6;;
39294;SDS011;52361;52.100;5.248;2022-08-24T19:34:15;3.8;;;2.7;;
39294;SDS011;52361;52.100;5.248;2022-08-24T19:35:51;5.4;;;3.1;;
39294;SDS011;52361;52.100;5.248;2022-08-24T19:39:06;4.3;;;3.1;;
39294;SDS011;52361;52.100;5.248;2022-08-24T19:40:44;3.9;;;3.0;;
39294;SDS011;52361;52.100;5.248;2022-08-24T19:42:21;4.41;;;3.1;;
39294;SDS011;52361;52.100;5.248;2022-08-24T19:46:51;8.9;;;3.5;;
39294;SDS011;52361;52.100;5.248;2022-08-24T19:48:27;4.0;;;3.1;;
39294;SDS011;52361;52.100;5.248;2022-08-24T19:51:44;4.0;;;3.1;;
39294;SDS011;52361;52.100;5.248;2022-08-24T19:53:20;6.1;;;3.5;;
39294;SDS011;52361;52.100;5.248;2022-08-24T19:55:06;4.91;;;3.0;;
39294;SDS011;52361;52.100;5.248;2022-08-24T19:56:46;5.8;;;3.8;;
39294;SDS011;52361;52.100;5.248;2022-08-24T20:00:19;3.9;;;3.4;;
39294;SDS011;52361;52.100;5.248;2022-08-24T20:02:01;5.0;;;3.3;;
39294;SDS011;52361;52.100;5.248;2022-08-24T20:03:38;3.8;;;3.2;;
39294;SDS011;52361;52.100;5.248;2022-08-24T20:05:14;4.1;;;3.3;;
39294;SDS011;52361;52.100;5.248;2022-08-24T20:08:28;3.6;;;3.1;;
39294;SDS011;52361;52.100;5.248;2022-08-24T20:10:05;3.5;;;3.2;;
39294;SDS011;52361;52.100;5.248;2022-08-24T20:11:42;5.6;;;3.2;;
39294;SDS011;52361;52.100;5.248;2022-08-24T20:14:56;4.5;;;3.8;;
39294;SDS011;52361;52.100;5.248;2022-08-24T20:16:33;5.4;;;4.1;;
39294;SDS011;52361;52.100;5.248;2022-08-24T20:18:12;6.7;;;3.6;;
39294;SDS011;52361;52.100;5.248;2022-08-24T20:19:50;4.8;;;3.4;;
39294;SDS011;52361;52.100;5.248;2022-08-24T20:24:41;5.4;;;3.6;;
39294;SDS011;52361;52.100;5.248;2022-08-24T20:26:18;5.2;;;3.6;;
39294;SDS011;52361;52.100;5.248;2022-08-24T20:29:36;5.11;;;3.7;;
39294;SDS011;52361;52.100;5.248;2022-08-24T20:31:13;5.2;;;3.7;;
39294;SDS011;52361;52.100;5.248;2022-08-24T20:32:51;7.3;;;3.7;;
39294;SDS011;52361;52.100;5.248;2022-08-24T20:34:28;4.41;;;3.7;;
39294;SDS011;52361;52.100;5.248;2022-08-24T20:37:47;8.4;;;4.1;;
39294;SDS011;52361;52.100;5.248;2022-08-24T20:39:23;4.41;;;3.5;;
39294;SDS011;52361;52.100;5.248;2022-08-24T20:41:01;5.7;;;4.0;;
39294;SDS011;52361;52.100;5.248;2022-08-24T20:44:17;6.0;;;3.8;;
39294;SDS011;52361;52.100;5.248;2022-08-24T20:45:53;4.91;;;3.8;;
39294;SDS011;52361;52.100;5.248;2022-08-24T20:47:30;6.3;;;4.41;;
39294;SDS011;52361;52.100;5.248;2022-08-24T20:49:06;5.3;;;3.8;;
39294;SDS011;52361;52.100;5.248;2022-08-24T20:52:19;5.3;;;4.3;;
39294;SDS011;52361;52.100;5.248;2022-08-24T20:53:55;6.5;;;4.61;;
39294;SDS011;52361;52.100;5.248;2022-08-24T20:58:48;6.4;;;4.3;;
39294;SDS011;52361;52.100;5.248;2022-08-24T21:00:27;5.7;;;4.7;;
39294;SDS011;52361;52.100;5.248;2022-08-24T21:02:03;6.8;;;4.5;;
39294;SDS011;52361;52.100;5.248;2022-08-24T21:05:15;5.0;;;4.1;;
39294;SDS011;52361;52.100;5.248;2022-08-24T21:06:52;6.3;;;4.5;;
39294;SDS011;52361;52.100;5.248;2022-08-24T21:08:28;5.7;;;4.3;;
39294;SDS011;52361;52.100;5.248;2022-08-24T21:10:05;7.2;;;4.7;;
39294;SDS011;52361;52.100;5.248;2022-08-24T21:13:20;6.7;;;4.8;;
39294;SDS011;52361;52.100;5.248;2022-08-24T21:14:56;5.7;;;4.41;;
39294;SDS011;52361;52.100;5.248;2022-08-24T21:16:33;8.71;;;4.61;;
39294;SDS011;52361;52.100;5.248;2022-08-24T21:19:50;6.5;;;4.61;;
39294;SDS011;52361;52.100;5.248;2022-08-24T21:21:26;6.1;;;4.41;;
39294;SDS011;52361;52.100;5.248;2022-08-24T21:23:03;6.8;;;5.11;;
39294;SDS011;52361;52.100;5.248;2022-08-24T21:24:39;6.4;;;4.3;;
39294;SDS011;52361;52.100;5.248;2022-08-24T21:27:58;4.8;;;4.0;;
39294;SDS011;52361;52.100;5.248;2022-08-24T21:29:36;6.7;;;5.11;;
39294;SDS011;52361;52.100;5.248;2022-08-24T21:31:13;4.91;;;3.8;;
39294;SDS011;52361;52.100;5.248;2022-08-24T21:36:34;5.5;;;4.1;;
39294;SDS011;52361;52.100;5.248;2022-08-24T21:38:11;6.9;;;4.2;;
39294;SDS011;52361;52.100;5.248;2022-08-24T21:39:48;6.8;;;5.0;;
39294;SDS011;52361;52.100;5.248;2022-08-24T21:41:25;5.5;;;4.1;;
39294;SDS011;52361;52.100;5.248;2022-08-24T21:44:40;6.9;;;5.3;;
39294;SDS011;52361;52.100;5.248;2022-08-24T21:47:53;5.0;;;3.9;;
39294;SDS011;52361;52.100;5.248;2022-08-24T21:51:06;6.8;;;4.8;;
39294;SDS011;52361;52.100;5.248;2022-08-24T21:52:42;6.6;;;4.41;;
39294;SDS011;52361;52.100;5.248;2022-08-24T21:54:19;6.4;;;3.8;;
39294;SDS011;52361;52.100;5.248;2022-08-24T21:57:35;6.2;;;4.5;;
39294;SDS011;52361;52.100;5.248;2022-08-24T21:59:12;6.2;;;4.91;;
39294;SDS011;52361;52.100;5.248;2022-08-24T22:00:48;8.1;;;5.3;;
39294;SDS011;52361;52.100;5.248;2022-08-24T22:05:38;6.3;;;4.91;;
39294;SDS011;52361;52.100;5.248;2022-08-24T22:07:14;6.9;;;4.5;;
39294;SDS011;52361;52.100;5.248;2022-08-24T22:08:50;5.3;;;4.61;;
39294;SDS011;52361;52.100;5.248;2022-08-24T22:12:06;5.11;;;4.3;;
39294;SDS011;52361;52.100;5.248;2022-08-24T22:13:43;8.2;;;5.3;;
39294;SDS011;52361;52.100;5.248;2022-08-24T22:15:21;5.7;;;4.61;;
39294;SDS011;52361;52.100;5.248;2022-08-24T22:16:57;6.6;;;5.3;;
39294;SDS011;52361;52.100;5.248;2022-08-24T22:20:11;7.2;;;5.7;;
39294;SDS011;52361;52.100;5.248;2022-08-24T22:21:50;6.0;;;5.11;;
39294;SDS011;52361;52.100;5.248;2022-08-24T22:23:26;7.6;;;5.5;;
39294;SDS011;52361;52.100;5.248;2022-08-24T22:26:39;7.9;;;5.7;;
39294;SDS011;52361;52.100;5.248;2022-08-24T22:28:17;9.6;;;6.1;;
39294;SDS011;52361;52.100;5.248;2022-08-24T22:29:54;7.4;;;5.2;;
39294;SDS011;52361;52.100;5.248;2022-08-24T22:31:33;10.1;;;6.2;;
39294;SDS011;52361;52.100;5.248;2022-08-24T22:34:49;8.1;;;5.6;;
39294;SDS011;52361;52.100;5.248;2022-08-24T22:36:26;6.2;;;5.2;;
39294;SDS011;52361;52.100;5.248;2022-08-24T22:38:05;6.0;;;5.11;;
39294;SDS011;52361;52.100;5.248;2022-08-24T22:41:20;6.8;;;5.8;;
39294;SDS011;52361;52.100;5.248;2022-08-24T22:42:58;7.5;;;5.3;;
39294;SDS011;52361;52.100;5.248;2022-08-24T22:44:34;8.2;;;5.8;;
39294;SDS011;52361;52.100;5.248;2022-08-24T22:47:46;7.4;;;5.5;;
39294;SDS011;52361;52.100;5.248;2022-08-24T22:49:24;6.0;;;4.61;;
39294;SDS011;52361;52.100;5.248;2022-08-24T22:52:43;7.3;;;6.1;;
39294;SDS011;52361;52.100;5.248;2022-08-24T22:55:59;8.1;;;5.2;;
39294;SDS011;52361;52.100;5.248;2022-08-24T22:57:36;7.9;;;5.6;;
39294;SDS011;52361;52.100;5.248;2022-08-24T22:59:13;5.6;;;4.5;;
39294;SDS011;52361;52.100;5.248;2022-08-24T23:00:51;8.0;;;5.3;;
39294;SDS011;52361;52.100;5.248;2022-08-24T23:04:05;9.0;;;5.2;;
39294;SDS011;52361;52.100;5.248;2022-08-24T23:05:47;7.2;;;5.3;;
39294;SDS011;52361;52.100;5.248;2022-08-24T23:07:24;6.3;;;5.3;;
39294;SDS011;52361;52.100;5.248;2022-08-24T23:10:37;8.0;;;5.6;;
39294;SDS011;52361;52.100;5.248;2022-08-24T23:12:15;7.9;;;5.6;;
39294;SDS011;52361;52.100;5.248;2022-08-24T23:13:57;8.6;;;5.9;;
39294;SDS011;52361;52.100;5.248;2022-08-24T23:15:35;7.9;;;5.6;;
